Time;durP1;ratioP1;P1;durP2;ratioP2;P2;SDS_P1;SDS_P2;PMS_P1;PMS_P2;Temp;Humidity;BMP_temperature;BMP_pressure;BME280_temperature;BME280_humidity;BME280_pressure;Samples;Min_cycle;Max_cycle;Signal;HPM_P1;HPM_P2
2023/05/19 00:01:12;;;;;;;7.63;6.07;;;23.40;42.00;;;;;;5055726;28;20146;-73
2023/05/19 00:03:54;;;;;;;6.82;5.70;;;23.40;42.10;;;;;;5055478;28;20520;-73
2023/05/19 00:06:26;;;;;;;6.00;5.40;;;23.30;42.00;;;;;;5055899;28;20029;-73
2023/05/19 00:09:00;;;;;;;6.68;5.88;;;23.30;42.10;;;;;;5056725;28;20371;-73
2023/05/19 00:11:27;;;;;;;7.13;5.97;;;23.30;42.10;;;;;;5056593;28;20040;-74
2023/05/19 00:13:54;;;;;;;7.53;6.28;;;23.30;42.10;;;;;;5056464;28;20048;-73
2023/05/19 00:16:20;;;;;;;7.00;5.68;;;23.30;42.20;;;;;;5055494;28;20082;-73
2023/05/19 00:18:47;;;;;;;7.55;5.50;;;23.30;42.10;;;;;;5056842;28;20017;-73
2023/05/19 00:21:12;;;;;;;8.00;5.80;;;23.30;42.10;;;;;;5056590;28;20025;-73
2023/05/19 00:23:38;;;;;;;6.20;5.47;;;23.30;42.10;;;;;;5056350;28;20418;-73
2023/05/19 00:26:04;;;;;;;7.40;6.10;;;23.30;42.10;;;;;;5056563;28;20029;-73
2023/05/19 00:28:29;;;;;;;7.00;6.18;;;23.30;42.10;;;;;;5056559;28;20032;-73
2023/05/19 00:30:55;;;;;;;7.25;6.03;;;23.30;42.10;;;;;;5056730;28;20036;-73
2023/05/19 00:33:21;;;;;;;6.53;5.72;;;23.30;42.10;;;;;;5056955;28;20041;-73
2023/05/19 00:35:46;;;;;;;7.75;6.00;;;23.30;42.10;;;;;;5056480;28;20037;-73
2023/05/19 00:38:12;;;;;;;7.53;5.93;;;23.30;42.20;;;;;;5056439;28;20044;-73
2023/05/19 00:40:38;;;;;;;6.60;5.90;;;23.30;42.10;;;;;;5056130;28;20036;-73
2023/05/19 00:43:07;;;;;;;6.00;5.40;;;23.30;42.20;;;;;;5054534;28;20078;-73
2023/05/19 00:45:34;;;;;;;7.07;6.30;;;23.30;42.20;;;;;;5056092;28;20074;-73
2023/05/19 00:47:59;;;;;;;6.32;5.65;;;23.30;42.10;;;;;;5056058;28;20029;-73
2023/05/19 00:50:27;;;;;;;7.50;5.70;;;23.20;42.10;;;;;;5056247;28;20082;-73
2023/05/19 00:52:56;;;;;;;7.50;5.93;;;23.20;42.10;;;;;;5056086;28;20449;-73
2023/05/19 00:55:25;;;;;;;7.20;6.25;;;23.20;42.30;;;;;;5055852;28;20505;-73
2023/05/19 00:57:52;;;;;;;6.50;5.82;;;23.20;42.30;;;;;;5055922;28;20538;-72
2023/05/19 01:00:17;;;;;;;7.28;6.10;;;23.20;42.30;;;;;;5055840;28;20037;-73
2023/05/19 01:02:43;;;;;;;7.40;6.15;;;23.20;42.40;;;;;;5055755;28;20025;-73
2023/05/19 01:05:09;;;;;;;7.25;5.50;;;23.20;42.40;;;;;;5055675;28;20040;-72
2023/05/19 01:07:35;;;;;;;6.95;5.57;;;23.30;42.40;;;;;;5054511;28;20029;-73
2023/05/19 01:10:01;;;;;;;7.97;6.15;;;23.20;42.30;;;;;;5055509;28;20029;-73
2023/05/19 01:12:28;;;;;;;7.07;5.53;;;23.30;42.40;;;;;;5055444;28;20452;-73
2023/05/19 01:14:55;;;;;;;7.60;5.82;;;23.30;42.30;;;;;;5055580;28;20025;-73
2023/05/19 01:17:28;;;;;;;6.82;5.65;;;23.30;42.30;;;;;;5055671;28;20474;-73
2023/05/19 01:20:09;;;;;;;7.47;6.03;;;23.20;42.20;;;;;;5055641;28;20029;-73
2023/05/19 01:22:41;;;;;;;6.40;5.47;;;23.20;42.40;;;;;;5055466;28;20108;-73
2023/05/19 01:25:42;;;;;;;8.48;5.78;;;23.10;42.30;;;;;;5055172;28;20434;-73
2023/05/19 01:28:29;;;;;;;7.65;6.00;;;23.10;42.40;;;;;;5054478;28;20159;-72
2023/05/19 01:30:57;;;;;;;7.45;6.00;;;23.10;42.40;;;;;;5055127;28;20391;-73
2023/05/19 01:33:23;;;;;;;6.78;5.90;;;23.10;42.40;;;;;;5055530;28;20132;-73
2023/05/19 01:35:50;;;;;;;8.95;5.85;;;23.10;42.40;;;;;;5055272;28;20033;-73
2023/05/19 01:38:18;;;;;;;6.72;5.70;;;23.10;42.40;;;;;;5055395;28;20025;-73
2023/05/19 01:40:46;;;;;;;6.50;5.80;;;23.10;42.60;;;;;;5053842;28;20033;-73
2023/05/19 01:43:16;;;;;;;7.57;6.05;;;23.00;42.50;;;;;;5054690;28;20102;-73
2023/05/19 01:45:43;;;;;;;8.30;6.50;;;23.00;42.60;;;;;;5054945;28;20382;-73
2023/05/19 01:48:10;;;;;;;7.80;6.60;;;22.90;42.60;;;;;;5055164;28;20056;-73
2023/05/19 01:50:36;;;;;;;6.57;5.88;;;22.90;42.70;;;;;;5054933;28;20029;-73
2023/05/19 01:53:02;;;;;;;7.00;6.30;;;22.80;42.70;;;;;;5054749;28;20098;-73
2023/05/19 01:55:28;;;;;;;8.05;6.32;;;22.80;42.80;;;;;;5054613;28;20029;-73
2023/05/19 01:58:04;;;;;;;7.35;6.07;;;22.80;42.80;;;;;;5053672;28;20079;-74
2023/05/19 02:00:53;;;;;;;7.53;6.30;;;22.80;43.00;;;;;;5053752;28;20423;-73
2023/05/19 02:03:39;;;;;;;6.82;6.13;;;22.80;43.30;;;;;;5053305;28;20436;-73
2023/05/19 02:06:26;;;;;;;7.32;6.07;;;22.80;43.00;;;;;;5054808;28;20084;-73
2023/05/19 02:09:24;;;;;;;7.60;6.32;;;22.90;43.10;;;;;;5053652;28;20029;-74
2023/05/19 02:12:19;;;;;;;7.25;6.10;;;22.90;43.10;;;;;;5053413;28;20501;-74
2023/05/19 02:14:51;;;;;;;6.63;5.95;;;22.90;43.10;;;;;;5053237;28;20041;-73
2023/05/19 02:17:19;;;;;;;6.97;5.93;;;23.00;42.90;;;;;;5054865;28;20035;-73
2023/05/19 02:19:45;;;;;;;6.25;5.65;;;23.00;42.90;;;;;;5054401;28;20021;-73
2023/05/19 02:22:10;;;;;;;7.20;5.95;;;23.00;42.80;;;;;;5054437;28;20028;-73
2023/05/19 02:24:36;;;;;;;7.35;6.25;;;23.10;42.90;;;;;;5054205;28;20040;-73
2023/05/19 02:27:02;;;;;;;7.72;6.47;;;23.10;42.90;;;;;;5052690;28;20491;-74
2023/05/19 02:29:28;;;;;;;7.03;6.03;;;23.10;42.90;;;;;;5054084;28;20037;-73
2023/05/19 02:31:53;;;;;;;6.38;5.72;;;23.10;42.90;;;;;;5053993;28;20053;-73
2023/05/19 02:34:19;;;;;;;8.52;6.30;;;23.10;42.90;;;;;;5054055;28;20064;-73
2023/05/19 02:36:48;;;;;;;7.07;6.22;;;23.10;42.90;;;;;;5053991;28;20032;-73
2023/05/19 02:39:14;;;;;;;7.80;6.72;;;23.10;43.00;;;;;;5054115;28;20024;-73
2023/05/19 02:41:40;;;;;;;8.43;6.57;;;23.10;43.00;;;;;;5053640;28;20025;-73
2023/05/19 02:44:06;;;;;;;6.65;5.95;;;23.10;43.60;;;;;;5053700;28;20398;-73
2023/05/19 02:46:32;;;;;;;7.35;6.57;;;23.20;42.90;;;;;;5054016;28;20057;-73
2023/05/19 02:48:58;;;;;;;7.85;6.25;;;23.10;42.90;;;;;;5053856;28;20094;-73
2023/05/19 02:51:23;;;;;;;6.90;6.20;;;23.10;42.90;;;;;;5052429;28;20467;-73
2023/05/19 02:53:49;;;;;;;7.35;6.55;;;23.10;43.00;;;;;;5054139;28;20159;-73
2023/05/19 02:56:15;;;;;;;7.05;6.03;;;23.20;43.00;;;;;;5053770;28;20025;-73
2023/05/19 02:58:42;;;;;;;6.90;5.70;;;23.20;43.00;;;;;;5054459;28;20025;-72
2023/05/19 03:01:08;;;;;;;7.13;6.43;;;23.20;43.00;;;;;;5053832;28;20032;-73
2023/05/19 03:03:34;;;;;;;6.63;5.82;;;23.20;43.00;;;;;;5053633;28;20029;-73
2023/05/19 03:06:00;;;;;;;7.47;6.60;;;23.30;43.00;;;;;;5052450;28;20515;-73
2023/05/19 03:08:26;;;;;;;8.02;6.50;;;23.30;42.90;;;;;;5053709;28;20024;-73
2023/05/19 03:10:52;;;;;;;6.93;6.22;;;23.30;42.90;;;;;;5052240;28;20053;-73
2023/05/19 03:13:18;;;;;;;7.47;6.68;;;23.30;43.00;;;;;;5052326;28;20453;-72
2023/05/19 03:15:43;;;;;;;6.85;6.15;;;23.30;42.90;;;;;;5053133;28;20104;-72
2023/05/19 03:18:11;;;;;;;6.63;5.93;;;23.30;43.00;;;;;;5053553;28;20452;-72
2023/05/19 03:20:37;;;;;;;8.18;6.40;;;23.30;42.90;;;;;;5047635;28;20079;-72
2023/05/19 03:23:02;;;;;;;6.75;6.05;;;23.30;42.90;;;;;;5033474;28;20041;-72
2023/05/19 03:25:28;;;;;;;8.00;6.18;;;23.30;42.90;;;;;;5033386;28;20080;-72
2023/05/19 03:27:54;;;;;;;9.23;5.82;;;23.40;42.90;;;;;;5040143;28;20121;-68
2023/05/19 03:30:21;;;;;;;7.55;6.10;;;23.40;43.00;;;;;;5052565;28;20068;-69
2023/05/19 03:32:46;;;;;;;7.20;4.97;;;23.40;43.00;;;;;;5046368;28;20442;-69
2023/05/19 03:35:12;;;;;;;6.28;5.47;;;23.30;43.00;;;;;;5044097;28;20041;-69
2023/05/19 03:37:38;;;;;;;6.80;5.97;;;23.30;43.00;;;;;;5047176;28;20024;-69
2023/05/19 03:40:04;;;;;;;7.55;5.70;;;23.20;43.00;;;;;;5044109;28;20032;-69
2023/05/19 03:42:30;;;;;;;6.97;5.80;;;23.10;43.00;;;;;;5046673;28;20033;-70
2023/05/19 03:44:56;;;;;;;7.45;5.97;;;23.10;43.10;;;;;;5042963;28;20029;-69
2023/05/19 03:47:21;;;;;;;6.60;5.65;;;23.00;43.10;;;;;;5036659;28;20068;-70
2023/05/19 03:49:47;;;;;;;8.45;5.13;;;22.90;43.10;;;;;;5036189;28;20025;-69
2023/05/19 03:52:13;;;;;;;6.50;5.10;;;22.90;43.20;;;;;;5035924;28;20033;-70
2023/05/19 03:54:40;;;;;;;6.72;5.80;;;22.80;43.20;;;;;;5041245;28;20025;-70
2023/05/19 03:57:06;;;;;;;7.00;5.57;;;22.70;43.30;;;;;;5056105;28;20418;-69
2023/05/19 03:59:32;;;;;;;8.55;6.00;;;22.70;43.40;;;;;;5056183;28;20025;-69
2023/05/19 04:01:57;;;;;;;7.68;5.45;;;22.60;43.40;;;;;;5056150;28;20044;-70
2023/05/19 04:04:23;;;;;;;6.68;5.50;;;22.60;43.50;;;;;;5055474;28;20476;-69
2023/05/19 04:06:49;;;;;;;6.68;5.28;;;22.50;43.60;;;;;;5056003;28;20024;-70
2023/05/19 04:09:15;;;;;;;6.55;5.85;;;22.50;43.80;;;;;;5055811;28;20029;-70
2023/05/19 04:11:41;;;;;;;6.55;5.65;;;22.40;43.80;;;;;;5054137;28;20128;-70
2023/05/19 04:14:07;;;;;;;6.90;5.85;;;22.40;43.90;;;;;;5055776;28;20047;-69
2023/05/19 04:16:33;;;;;;;6.10;5.10;;;22.30;44.00;;;;;;5055516;28;20017;-72
2023/05/19 04:19:00;;;;;;;9.30;6.20;;;22.30;44.00;;;;;;5054375;28;20060;-71
2023/05/19 04:21:26;;;;;;;5.40;4.90;;;22.30;44.10;;;;;;5055724;28;20530;-71
2023/05/19 04:23:52;;;;;;;9.57;6.22;;;22.20;44.10;;;;;;5054337;28;20033;-69
2023/05/19 04:26:20;;;;;;;7.03;5.50;;;22.20;44.20;;;;;;5055377;28;20748;-69
2023/05/19 04:28:47;;;;;;;6.47;5.65;;;22.20;44.30;;;;;;5054095;28;20482;-70
2023/05/19 04:31:13;;;;;;;6.75;5.63;;;22.20;44.40;;;;;;5055255;28;20029;-70
2023/05/19 04:33:40;;;;;;;7.55;6.07;;;22.20;44.40;;;;;;5055260;28;20128;-71
2023/05/19 04:36:09;;;;;;;8.13;5.97;;;22.30;44.40;;;;;;5054017;28;20025;-71
2023/05/19 04:38:35;;;;;;;7.28;6.03;;;22.30;44.40;;;;;;5053886;28;20021;-72
2023/05/19 04:41:02;;;;;;;6.60;5.60;;;22.30;44.40;;;;;;5053051;28;20033;-72
2023/05/19 04:43:27;;;;;;;5.90;5.10;;;22.40;44.40;;;;;;5055265;28;20353;-73
2023/05/19 04:45:53;;;;;;;8.20;6.10;;;22.40;44.30;;;;;;5055412;28;20083;-71
2023/05/19 04:48:22;;;;;;;10.82;5.95;;;22.40;44.30;;;;;;5055005;28;20419;-70
2023/05/19 04:50:50;;;;;;;7.78;5.20;;;22.50;44.30;;;;;;5054925;28;20036;-71
2023/05/19 04:53:16;;;;;;;6.88;4.85;;;22.50;44.30;;;;;;5054695;28;20032;-70
2023/05/19 04:55:42;;;;;;;7.43;5.70;;;22.50;44.20;;;;;;5055120;28;20021;-71
2023/05/19 04:58:08;;;;;;;7.65;5.57;;;22.50;44.20;;;;;;5054906;28;20116;-72
2023/05/19 05:00:35;;;;;;;7.05;5.70;;;22.50;44.20;;;;;;5054874;28;20052;-75
2023/05/19 05:03:03;;;;;;;10.05;6.93;;;22.60;44.30;;;;;;5053438;28;20518;-72
2023/05/19 05:05:30;;;;;;;9.02;5.72;;;22.60;44.30;;;;;;5054419;28;20106;-72
2023/05/19 05:07:56;;;;;;;8.38;5.65;;;22.60;44.30;;;;;;5053786;28;20391;-73
2023/05/19 05:10:22;;;;;;;9.75;5.93;;;22.70;44.30;;;;;;5054528;28;20029;-73
2023/05/19 05:12:48;;;;;;;8.85;5.50;;;22.70;44.30;;;;;;5054313;28;20036;-72
2023/05/19 05:15:14;;;;;;;8.02;5.70;;;22.70;44.20;;;;;;5054518;28;20102;-72
2023/05/19 05:17:40;;;;;;;6.88;5.70;;;22.80;44.20;;;;;;5052833;28;20464;-73
2023/05/19 05:20:06;;;;;;;6.22;5.63;;;22.80;44.10;;;;;;5054256;28;20036;-73
2023/05/19 05:22:32;;;;;;;7.68;6.03;;;22.90;44.20;;;;;;5054344;28;20060;-73
2023/05/19 05:24:58;;;;;;;7.80;6.22;;;22.90;44.10;;;;;;5054726;28;20044;-75
2023/05/19 05:27:24;;;;;;;6.95;5.30;;;22.90;44.10;;;;;;5053039;28;20025;-79
2023/05/19 05:29:50;;;;;;;6.65;5.20;;;23.00;44.10;;;;;;5054252;28;20037;-76
2023/05/19 05:32:16;;;;;;;5.95;5.20;;;23.00;44.10;;;;;;5053867;28;20080;-74
2023/05/19 05:34:42;;;;;;;6.32;5.50;;;23.10;44.10;;;;;;5054160;28;20384;-76
2023/05/19 05:37:07;;;;;;;5.78;5.18;;;23.10;44.10;;;;;;5053981;28;20474;-77
2023/05/19 05:39:33;;;;;;;7.68;5.70;;;23.10;44.00;;;;;;5054077;28;20029;-76
2023/05/19 05:41:58;;;;;;;6.82;5.63;;;23.20;43.90;;;;;;5054313;28;20104;-72
2023/05/19 05:44:24;;;;;;;7.55;5.78;;;23.20;43.90;;;;;;5053486;28;20053;-74
2023/05/19 05:46:50;;;;;;;6.70;5.63;;;23.30;44.00;;;;;;5054094;28;20037;-75
2023/05/19 05:49:16;;;;;;;6.88;5.47;;;23.30;43.90;;;;;;5053740;28;20041;-73
2023/05/19 05:51:42;;;;;;;6.72;5.53;;;23.30;43.90;;;;;;5053406;28;20036;-71
2023/05/19 05:54:10;;;;;;;8.52;5.60;;;23.30;43.80;;;;;;5053464;28;20029;-70
2023/05/19 05:56:36;;;;;;;8.55;5.85;;;23.40;43.90;;;;;;5053396;28;20025;-71
2023/05/19 05:59:07;;;;;;;6.63;5.43;;;23.40;43.90;;;;;;5054564;28;20031;-71
2023/05/19 06:01:34;;;;;;;7.30;5.50;;;23.40;43.90;;;;;;5054604;28;20375;-71
2023/05/19 06:04:00;;;;;;;7.07;6.20;;;23.50;43.90;;;;;;5054234;28;20119;-71
2023/05/19 06:06:25;;;;;;;8.80;5.53;;;23.50;43.90;;;;;;5054321;28;20060;-71
2023/05/19 06:08:51;;;;;;;6.95;5.78;;;23.50;43.80;;;;;;5054350;28;20024;-71
2023/05/19 06:11:18;;;;;;;7.15;5.90;;;23.50;43.80;;;;;;5053244;28;20025;-71
2023/05/19 06:13:43;;;;;;;8.82;5.63;;;23.60;43.80;;;;;;5054334;28;20031;-70
2023/05/19 06:16:09;;;;;;;6.10;5.45;;;23.60;43.80;;;;;;5053316;28;20370;-70
2023/05/19 06:18:35;;;;;;;8.02;5.60;;;23.60;43.70;;;;;;5054041;28;20029;-71
2023/05/19 06:21:02;;;;;;;7.00;5.57;;;23.60;43.70;;;;;;5054623;28;20036;-71
2023/05/19 06:23:29;;;;;;;7.05;5.20;;;23.70;43.70;;;;;;5054288;28;20032;-70
2023/05/19 06:25:55;;;;;;;7.15;5.68;;;23.80;43.60;;;;;;5054138;28;20467;-71
2023/05/19 06:28:21;;;;;;;8.20;5.55;;;23.80;43.60;;;;;;5054375;28;20032;-71
2023/05/19 06:30:46;;;;;;;8.13;5.78;;;23.80;43.70;;;;;;5054265;28;20033;-71
2023/05/19 06:33:12;;;;;;;7.60;5.35;;;23.80;43.60;;;;;;5054488;28;20182;-71
2023/05/19 06:35:38;;;;;;;6.85;5.43;;;23.80;43.60;;;;;;5053262;28;20159;-71
2023/05/19 06:38:03;;;;;;;5.88;5.28;;;23.90;43.70;;;;;;5053722;28;20025;-71
2023/05/19 06:40:29;;;;;;;6.20;5.45;;;23.90;43.60;;;;;;5054079;28;20053;-70
2023/05/19 06:42:55;;;;;;;6.38;5.20;;;23.90;43.60;;;;;;5053719;28;20040;-71
2023/05/19 06:45:21;;;;;;;5.90;5.30;;;23.90;43.60;;;;;;5054051;28;20028;-70
2023/05/19 06:47:47;;;;;;;9.20;5.80;;;23.90;43.60;;;;;;5053585;28;20028;-70
2023/05/19 06:50:13;;;;;;;5.50;4.90;;;24.00;43.60;;;;;;5052745;28;20464;-71
2023/05/19 06:52:39;;;;;;;6.68;5.82;;;24.00;43.60;;;;;;5053797;28;20029;-70
2023/05/19 06:55:05;;;;;;;6.60;5.53;;;24.00;43.50;;;;;;5053671;28;20029;-71
2023/05/19 06:57:30;;;;;;;6.13;5.53;;;24.00;43.50;;;;;;5053895;28;20060;-71
2023/05/19 06:59:56;;;;;;;7.43;5.53;;;24.00;43.60;;;;;;5053682;28;20410;-70
2023/05/19 07:02:22;;;;;;;6.63;5.38;;;24.00;43.60;;;;;;5053468;28;20029;-70
2023/05/19 07:04:47;;;;;;;7.38;5.70;;;24.00;43.70;;;;;;5053730;28;20082;-70
2023/05/19 07:07:13;;;;;;;7.55;5.20;;;24.00;44.30;;;;;;5051866;28;20028;-71
2023/05/19 07:09:39;;;;;;;7.05;5.60;;;24.00;43.70;;;;;;5053475;28;20025;-71
2023/05/19 07:12:05;;;;;;;5.65;5.05;;;24.10;43.70;;;;;;5053523;28;20033;-71
2023/05/19 07:14:30;;;;;;;7.20;5.45;;;24.10;43.70;;;;;;5053326;28;20372;-71
2023/05/19 07:16:56;;;;;;;5.88;5.03;;;24.10;43.70;;;;;;5053198;28;20471;-71
2023/05/19 07:19:22;;;;;;;6.70;5.40;;;24.10;43.70;;;;;;5052771;28;20449;-70
2023/05/19 07:21:48;;;;;;;6.70;5.40;;;24.20;43.70;;;;;;5053353;28;20040;-70
2023/05/19 07:24:14;;;;;;;7.90;5.63;;;24.20;43.80;;;;;;5053400;28;20029;-71
2023/05/19 07:26:40;;;;;;;8.48;5.38;;;24.20;43.80;;;;;;5053199;28;20025;-71
2023/05/19 07:29:05;;;;;;;7.00;5.40;;;24.20;43.80;;;;;;5053264;28;20448;-70
2023/05/19 07:31:31;;;;;;;8.00;5.80;;;24.20;43.70;;;;;;5051682;28;20025;-71
2023/05/19 07:33:57;;;;;;;6.60;5.50;;;24.20;43.60;;;;;;5053590;28;20107;-71
2023/05/19 07:36:23;;;;;;;7.32;5.40;;;24.20;43.60;;;;;;5053475;28;20033;-71
2023/05/19 07:38:49;;;;;;;9.02;5.70;;;24.30;44.10;;;;;;5053305;28;20025;-71
2023/05/19 07:41:15;;;;;;;7.50;4.90;;;24.30;43.60;;;;;;5053119;28;20028;-72
2023/05/19 07:43:41;;;;;;;5.97;5.38;;;24.30;43.60;;;;;;5052985;28;20037;-71
2023/05/19 07:46:06;;;;;;;5.65;4.72;;;24.40;43.70;;;;;;5052911;28;20021;-71
2023/05/19 07:48:32;;;;;;;7.60;5.43;;;24.40;43.70;;;;;;5052891;28;20032;-71
2023/05/19 07:50:58;;;;;;;5.90;5.28;;;24.30;43.60;;;;;;5052937;28;20418;-71
2023/05/19 07:53:23;;;;;;;6.35;5.25;;;24.40;43.70;;;;;;5053026;28;20036;-71
2023/05/19 07:55:49;;;;;;;6.40;5.00;;;24.40;44.20;;;;;;5053249;28;20059;-71
2023/05/19 07:58:15;;;;;;;5.90;4.95;;;24.40;43.50;;;;;;5052852;28;20033;-71
2023/05/19 08:00:42;;;;;;;6.13;5.03;;;24.40;43.50;;;;;;5052614;28;20402;-71
2023/05/19 08:03:08;;;;;;;6.85;5.40;;;24.50;43.50;;;;;;5052907;28;20021;-71
2023/05/19 08:05:35;;;;;;;5.88;5.28;;;24.40;43.50;;;;;;5051741;28;20039;-71
2023/05/19 08:08:01;;;;;;;6.07;5.35;;;24.50;43.50;;;;;;5051536;28;20029;-71
2023/05/19 08:10:27;;;;;;;6.05;4.70;;;24.50;43.50;;;;;;5051647;28;20539;-71
2023/05/19 08:12:52;;;;;;;4.97;4.50;;;24.50;43.50;;;;;;5052761;28;20056;-71
2023/05/19 08:15:19;;;;;;;5.28;4.50;;;24.50;43.40;;;;;;5052874;28;20025;-71
2023/05/19 08:17:45;;;;;;;5.57;4.95;;;24.50;43.40;;;;;;5055636;28;20450;-71
2023/05/19 08:20:11;;;;;;;6.05;4.50;;;24.50;43.30;;;;;;5056682;28;20056;-71
2023/05/19 08:22:37;;;;;;;5.25;4.32;;;24.60;43.40;;;;;;5056411;28;20065;-71
2023/05/19 08:25:04;;;;;;;6.47;4.80;;;24.60;43.30;;;;;;5056425;28;20075;-71
2023/05/19 08:27:29;;;;;;;6.13;4.70;;;24.60;43.30;;;;;;5056438;28;20021;-71
2023/05/19 08:29:56;;;;;;;5.45;4.40;;;24.60;43.20;;;;;;5056091;28;20525;-71
2023/05/19 08:32:22;;;;;;;7.18;4.78;;;24.60;43.20;;;;;;5055933;28;20094;-71
2023/05/19 08:34:47;;;;;;;5.32;4.45;;;24.70;43.20;;;;;;5056578;28;20037;-71
2023/05/19 08:37:13;;;;;;;5.70;4.70;;;24.60;43.10;;;;;;5056543;28;20029;-72
2023/05/19 08:39:40;;;;;;;5.95;4.60;;;24.70;43.10;;;;;;5056197;28;20041;-71
2023/05/19 08:42:08;;;;;;;4.88;4.15;;;24.70;43.10;;;;;;5054266;28;20095;-70
2023/05/19 08:44:38;;;;;;;6.68;4.18;;;24.70;43.00;;;;;;5055661;28;20408;-71
2023/05/19 08:47:05;;;;;;;5.13;4.60;;;24.70;42.90;;;;;;5056113;28;20021;-70
2023/05/19 08:49:35;;;;;;;5.68;4.70;;;24.80;42.80;;;;;;5055821;28;20044;-70
2023/05/19 08:52:29;;;;;;;5.45;4.60;;;24.80;42.80;;;;;;5055303;28;20040;-70
2023/05/19 08:55:26;;;;;;;5.00;4.28;;;24.90;42.80;;;;;;5053711;28;20471;-70
2023/05/19 08:57:52;;;;;;;4.72;4.22;;;24.90;42.70;;;;;;5054723;28;20564;-70
2023/05/19 09:00:19;;;;;;;4.55;3.88;;;25.00;42.60;;;;;;5055483;28;20098;-70
2023/05/19 09:02:50;;;;;;;5.85;4.68;;;25.10;42.60;;;;;;5055407;28;20080;-70
2023/05/19 09:05:17;;;;;;;5.90;4.50;;;25.10;42.50;;;;;;5055518;28;20176;-70
2023/05/19 09:07:44;;;;;;;5.53;4.60;;;25.10;42.40;;;;;;5056117;28;20091;-70
2023/05/19 09:10:13;;;;;;;5.10;4.50;;;25.10;42.30;;;;;;5055553;28;20025;-70
2023/05/19 09:12:48;;;;;;;6.63;4.57;;;25.10;42.30;;;;;;5054307;28;20453;-70
2023/05/19 09:15:19;;;;;;;5.03;4.47;;;25.10;42.20;;;;;;5055384;28;20035;-70
2023/05/19 09:17:46;;;;;;;5.88;4.38;;;25.20;42.20;;;;;;5055342;28;20025;-70
2023/05/19 09:20:13;;;;;;;5.05;4.55;;;25.20;42.10;;;;;;5055797;28;20111;-70
2023/05/19 09:22:46;;;;;;;5.63;4.45;;;25.20;41.90;;;;;;5054032;28;20041;-70
2023/05/19 09:25:50;;;;;;;6.43;4.55;;;25.30;41.90;;;;;;5055357;28;20025;-70
2023/05/19 09:28:24;;;;;;;5.40;4.30;;;25.30;41.60;;;;;;5054351;28;20021;-70
2023/05/19 09:31:07;;;;;;;5.30;4.80;;;25.30;41.70;;;;;;5055210;28;20526;-70
2023/05/19 09:33:35;;;;;;;5.15;4.57;;;25.40;41.80;;;;;;5055062;28;20056;-71
2023/05/19 09:36:02;;;;;;;5.00;4.50;;;25.40;41.70;;;;;;5054785;28;20112;-70
2023/05/19 09:38:28;;;;;;;5.75;4.30;;;25.40;41.70;;;;;;5054694;28;20079;-71
2023/05/19 09:40:58;;;;;;;6.75;4.88;;;25.40;41.60;;;;;;5054945;28;20025;-70
2023/05/19 09:43:30;;;;;;;5.88;4.50;;;25.50;41.60;;;;;;5054628;28;20094;-70
2023/05/19 09:46:12;;;;;;;6.35;4.93;;;25.50;41.50;;;;;;5054966;28;20029;-70
2023/05/19 09:48:38;;;;;;;4.97;4.30;;;25.50;40.90;;;;;;5054914;28;20063;-70
2023/05/19 09:51:06;;;;;;;5.97;4.30;;;25.50;41.40;;;;;;5054786;28;20021;-70
2023/05/19 09:53:33;;;;;;;6.28;4.65;;;25.50;41.30;;;;;;5054663;28;20033;-70
2023/05/19 09:56:00;;;;;;;5.60;4.63;;;25.50;41.20;;;;;;5054538;28;20468;-70
2023/05/19 09:58:36;;;;;;;4.78;4.15;;;25.60;41.10;;;;;;5054883;28;20032;-70
2023/05/19 10:01:03;;;;;;;5.40;4.82;;;25.50;41.10;;;;;;5054627;28;20025;-70
2023/05/19 10:03:30;;;;;;;4.78;4.10;;;25.60;41.10;;;;;;5054257;28;20040;-70
2023/05/19 10:05:56;;;;;;;7.20;4.47;;;25.50;40.90;;;;;;5054509;28;20021;-70
2023/05/19 10:08:25;;;;;;;6.03;4.82;;;25.50;40.90;;;;;;5054383;28;20037;-70
2023/05/19 10:10:51;;;;;;;6.90;5.13;;;25.60;40.90;;;;;;5054572;28;20032;-70
2023/05/19 10:13:17;;;;;;;5.03;4.47;;;25.60;40.90;;;;;;5053047;28;20032;-71
2023/05/19 10:15:44;;;;;;;5.55;4.68;;;25.60;40.80;;;;;;5054433;28;20459;-70
2023/05/19 10:18:10;;;;;;;5.10;4.43;;;25.60;40.80;;;;;;5053792;28;20024;-71
2023/05/19 10:20:36;;;;;;;5.65;4.55;;;25.60;40.80;;;;;;5054092;28;20114;-71
2023/05/19 10:23:02;;;;;;;5.45;4.95;;;25.60;40.70;;;;;;5052825;28;20475;-71
2023/05/19 10:25:31;;;;;;;5.38;4.65;;;25.60;40.70;;;;;;5054116;28;20025;-71
2023/05/19 10:28:22;;;;;;;6.78;4.85;;;25.60;40.60;;;;;;5054258;28;20021;-70
2023/05/19 10:30:52;;;;;;;5.07;4.40;;;25.60;40.60;;;;;;5054393;28;20033;-71
2023/05/19 10:33:19;;;;;;;5.32;4.13;;;25.60;40.60;;;;;;5052383;28;20131;-70
2023/05/19 10:36:09;;;;;;;4.70;4.25;;;25.70;40.50;;;;;;5054345;28;20029;-71
2023/05/19 10:38:47;;;;;;;5.38;4.57;;;25.80;40.50;;;;;;5053817;28;20031;-70
2023/05/19 10:41:33;;;;;;;4.90;4.30;;;25.80;40.40;;;;;;5052788;28;20028;-70
2023/05/19 10:44:32;;;;;;;4.32;3.92;;;25.90;40.20;;;;;;5053820;28;20072;-70
2023/05/19 10:46:58;;;;;;;6.47;4.13;;;26.00;40.10;;;;;;5053579;28;20029;-70
2023/05/19 10:49:24;;;;;;;5.75;4.30;;;26.10;40.20;;;;;;5053447;28;20364;-71
2023/05/19 10:51:51;;;;;;;4.75;4.25;;;26.20;40.20;;;;;;5054211;28;20472;-71
2023/05/19 10:54:17;;;;;;;5.65;4.55;;;26.20;40.10;;;;;;5053585;28;20100;-71
2023/05/19 10:56:46;;;;;;;5.15;4.40;;;26.20;40.00;;;;;;5053467;28;20115;-70
2023/05/19 10:59:32;;;;;;;4.70;4.20;;;26.30;40.00;;;;;;5053660;28;20021;-71
2023/05/19 11:02:06;;;;;;;5.20;4.40;;;26.30;39.80;;;;;;5053247;28;20111;-71
2023/05/19 11:04:49;;;;;;;;;;;26.30;39.90;;;;;;5054382;28;20025;-71
2023/05/19 11:07:19;;;;;;;;;;;26.30;39.60;;;;;;5053920;28;19905;-71
2023/05/19 11:09:48;;;;;;;;;;;26.30;39.60;;;;;;5054022;28;19911;-71
2023/05/19 11:12:18;;;;;;;;;;;26.30;39.40;;;;;;5053646;28;19966;-71
2023/05/19 11:14:44;;;;;;;;;;;26.30;39.50;;;;;;5052554;28;19904;-71
2023/05/19 11:17:12;;;;;;;;;;;26.30;39.50;;;;;;5053894;28;20263;-70
2023/05/19 11:19:40;;;;;;;;;;;26.30;40.20;;;;;;5053692;28;19908;-71
2023/05/19 11:22:07;;;;;;;;;;;26.20;39.40;;;;;;5053788;28;19912;-71
2023/05/19 11:24:34;;;;;;;;;;;26.30;39.60;;;;;;5053693;28;19928;-71
2023/05/19 11:27:16;;;;;;;;;;;26.20;39.50;;;;;;5052121;28;19971;-71
2023/05/19 11:29:42;;;;;;;;;;;26.30;39.60;;;;;;5053788;28;20013;-70
2023/05/19 11:32:08;;;;;;;;;;;26.30;39.50;;;;;;5053858;28;20343;-70
2023/05/19 11:34:34;;;;;;;;;;;26.30;39.40;;;;;;5053870;28;19952;-70
2023/05/19 11:37:00;;;;;;;;;;;26.30;39.40;;;;;;5053505;28;19959;-71
2023/05/19 11:39:26;;;;;;;;;;;26.30;39.40;;;;;;5053442;28;19909;-70
2023/05/19 11:41:54;;;;;;;;;;;26.40;39.40;;;;;;5053656;28;19944;-71
2023/05/19 11:44:19;;;;;;;;;;;26.30;39.30;;;;;;5053512;28;19913;-71
2023/05/19 11:46:45;;;;;;;;;;;26.30;39.30;;;;;;5053434;28;19904;-71
2023/05/19 11:49:11;;;;;;;;;;;26.30;39.40;;;;;;5053275;28;20366;-71
2023/05/19 11:51:37;;;;;;;;;;;26.30;39.40;;;;;;5054228;28;19904;-71
2023/05/19 11:54:02;;;;;;;;;;;26.20;39.40;;;;;;5057091;28;19958;-71
2023/05/19 11:56:32;;;;;;;;;;;26.20;39.50;;;;;;5057549;28;19913;-71
2023/05/19 11:58:58;;;;;;;;;;;26.20;39.50;;;;;;5057364;28;19909;-71
2023/05/19 12:01:25;;;;;;;;;;;26.30;39.60;;;;;;5057189;28;20411;-69
2023/05/19 12:03:51;;;;;;;;;;;26.30;39.50;;;;;;5057011;28;19920;-69
2023/05/19 12:06:16;;;;;;;;;;;26.40;39.50;;;;;;5057245;28;19905;-70
2023/05/19 12:08:43;;;;;;;;;;;26.50;39.40;;;;;;5056877;28;19974;-70
2023/05/19 12:11:09;;;;;;;;;;;26.50;39.10;;;;;;5057467;28;19916;-69
2023/05/19 12:13:34;;;;;;;;;;;26.60;38.70;;;;;;5057332;28;20351;-69
2023/05/19 12:16:02;;;;;;;;;;;26.70;39.10;;;;;;5055743;28;19905;-70
2023/05/19 12:18:35;;;;;;;;;;;26.70;39.00;;;;;;5057147;28;20317;-69
2023/05/19 12:21:00;;;;;;;;;;;26.80;39.00;;;;;;5057068;28;19987;-70
2023/05/19 12:23:29;;;;;;;;;;;26.80;38.90;;;;;;5057096;28;20012;-70
2023/05/19 12:25:56;;;;;;;;;;;26.80;38.80;;;;;;5056971;28;19905;-70
2023/05/19 12:28:21;;;;;;;;;;;26.80;38.80;;;;;;5055352;28;20380;-70
2023/05/19 12:30:48;;;;;;;;;;;26.90;38.70;;;;;;5056638;28;19999;-70
2023/05/19 12:33:14;;;;;;;;;;;26.90;38.80;;;;;;5056377;28;19955;-70
2023/05/19 12:35:41;;;;;;;;;;;26.90;38.60;;;;;;5056716;28;19906;-70
2023/05/19 12:38:06;;;;;;;;;;;27.00;38.60;;;;;;5057102;28;19996;-70
2023/05/19 12:40:35;;;;;;;;;;;27.00;38.60;;;;;;5056525;28;19940;-70
2023/05/19 12:43:00;;;;;;;;;;;27.00;38.60;;;;;;5056376;28;19952;-70
2023/05/19 12:45:27;;;;;;;;;;;27.10;38.60;;;;;;5055358;28;19955;-70
2023/05/19 12:47:52;;;;;;;;;;;27.10;38.50;;;;;;5056668;28;20299;-71
2023/05/19 12:50:18;;;;;;;;;;;27.20;38.40;;;;;;5056251;28;20005;-70
2023/05/19 12:52:50;;;;;;;;;;;27.20;38.20;;;;;;5056300;28;20047;-70
2023/05/19 12:55:15;;;;;;;;;;;27.30;38.10;;;;;;5056188;28;19905;-70
2023/05/19 12:57:42;;;;;;;;;;;27.40;38.20;;;;;;5056035;28;19928;-70
2023/05/19 13:00:21;;;;;;;;;;;27.40;38.10;;;;;;5055764;28;19950;-70
2023/05/19 13:03:13;;;;;;;;;;;27.50;37.90;;;;;;5054629;28;20381;-70
2023/05/19 13:05:42;;;;;;;;;;;27.60;37.90;;;;;;5056234;28;19915;-70